Time;durP1;ratioP1;P1;durP2;ratioP2;P2;SDS_P1;SDS_P2;PMS_P1;PMS_P2;Temp;Humidity;BMP_temperature;BMP_pressure;BME280_temperature;BME280_humidity;BME280_pressure;Samples;Min_cycle;Max_cycle;Signal;HPM_P1;HPM_P2
2022/05/21 00:00:36;;;;;;;1.83;1.20;;;10.70;99.90;;;;;;5067093;28;20053;-70
2022/05/21 00:03:02;;;;;;;2.17;0.98;;;10.70;99.90;;;;;;5068706;28;20040;-70
2022/05/21 00:05:30;;;;;;;2.08;1.00;;;10.70;99.90;;;;;;5050017;28;20044;-70
2022/05/21 00:07:56;;;;;;;2.08;1.20;;;10.60;99.90;;;;;;5067337;28;20032;-70
2022/05/21 00:10:24;;;;;;;1.92;1.02;;;10.60;99.90;;;;;;5066019;28;20406;-70
2022/05/21 00:12:50;;;;;;;3.88;1.35;;;10.60;99.90;;;;;;5066893;28;20059;-70
2022/05/21 00:15:18;;;;;;;1.40;0.93;;;10.70;99.90;;;;;;5061223;28;20471;-70
2022/05/21 00:17:44;;;;;;;2.05;1.30;;;10.60;99.90;;;;;;5047082;28;20120;-70
2022/05/21 00:20:47;;;;;;;2.83;1.48;;;10.60;99.90;;;;;;5046734;28;20053;-70
2022/05/21 00:22:57;;;;;;;3.17;1.92;;;10.70;99.90;;;;;;5083346;28;20057;-70
2022/05/21 00:25:23;;;;;;;1.98;1.02;;;10.60;99.90;;;;;;5049866;28;20049;-70
2022/05/21 00:27:49;;;;;;;2.50;1.23;;;10.70;99.90;;;;;;5066644;28;20465;-70
2022/05/21 00:30:15;;;;;;;3.35;1.38;;;10.70;99.90;;;;;;5054389;28;20386;-69
2022/05/21 00:32:40;;;;;;;2.50;1.25;;;10.60;99.90;;;;;;5070657;28;20098;-70
2022/05/21 00:35:07;;;;;;;2.83;1.17;;;10.70;99.90;;;;;;5054472;28;20044;-70
2022/05/21 00:37:33;;;;;;;2.15;1.13;;;10.60;99.90;;;;;;5071031;28;20093;-70
2022/05/21 00:39:58;;;;;;;2.55;1.30;;;10.70;99.90;;;;;;5052963;28;20056;-70
2022/05/21 00:42:24;;;;;;;3.65;2.03;;;10.70;99.90;;;;;;5071208;28;20087;-70
2022/05/21 00:44:49;;;;;;;3.25;1.92;;;10.70;99.90;;;;;;5070779;28;20048;-70
2022/05/21 00:47:16;;;;;;;3.63;2.17;;;10.70;99.90;;;;;;5070784;28;20036;-70
2022/05/21 00:49:42;;;;;;;3.88;2.05;;;10.70;99.90;;;;;;5070643;28;20394;-70
2022/05/21 00:52:12;;;;;;;4.43;2.28;;;10.80;99.90;;;;;;5070515;28;20051;-70
2022/05/21 00:54:43;;;;;;;6.50;3.10;;;10.80;99.90;;;;;;5069624;28;20210;-70
2022/05/21 00:57:29;;;;;;;3.88;2.17;;;10.80;99.90;;;;;;5053816;28;20036;-70
2022/05/21 01:00:04;;;;;;;6.32;2.55;;;10.90;99.90;;;;;;5070496;28;20359;-70
2022/05/21 01:02:41;;;;;;;5.95;3.17;;;10.90;99.90;;;;;;5070438;28;20067;-69
2022/05/21 01:05:11;;;;;;;6.82;3.75;;;11.00;99.90;;;;;;5070100;28;20555;-70
2022/05/21 01:07:40;;;;;;;7.80;4.25;;;10.90;99.90;;;;;;5053408;28;20040;-70
2022/05/21 01:10:08;;;;;;;5.95;3.33;;;10.90;99.90;;;;;;5052329;28;20194;-70
2022/05/21 01:12:37;;;;;;;7.15;3.05;;;10.90;99.90;;;;;;5070078;28;20037;-70
2022/05/21 01:15:09;;;;;;;10.38;3.95;;;10.90;99.90;;;;;;5069961;28;20493;-70
2022/05/21 01:17:34;;;;;;;5.63;3.15;;;10.90;99.90;;;;;;5069912;28;20045;-69
2022/05/21 01:20:08;;;;;;;6.13;3.67;;;10.80;99.90;;;;;;5053451;28;20123;-69
2022/05/21 01:22:45;;;;;;;7.22;4.10;;;10.90;99.90;;;;;;5053350;28;20047;-70
2022/05/21 01:25:13;;;;;;;6.72;3.63;;;10.90;99.90;;;;;;5068867;28;20036;-70
2022/05/21 01:27:40;;;;;;;7.97;5.15;;;11.00;99.90;;;;;;5052655;28;20095;-70
2022/05/21 01:30:09;;;;;;;6.45;4.38;;;11.00;99.90;;;;;;5069981;28;20573;-70
2022/05/21 01:32:35;;;;;;;8.65;4.57;;;11.00;99.90;;;;;;5068223;28;20107;-70
2022/05/21 01:35:01;;;;;;;10.73;4.45;;;11.00;99.90;;;;;;5068449;28;20048;-70
2022/05/21 01:37:28;;;;;;;9.68;4.32;;;11.10;99.90;;;;;;5068412;28;20040;-69
2022/05/21 01:39:54;;;;;;;12.15;5.25;;;11.20;99.90;;;;;;5067624;28;20914;-69
2022/05/21 01:42:20;;;;;;;11.90;4.95;;;11.20;99.90;;;;;;5068130;28;20362;-70
2022/05/21 01:44:52;;;;;;;6.75;4.20;;;11.30;99.90;;;;;;5051620;28;20067;-70
2022/05/21 01:47:18;;;;;;;8.70;4.10;;;11.30;99.90;;;;;;5068765;28;20040;-70
2022/05/21 01:49:43;;;;;;;9.35;4.72;;;11.30;99.90;;;;;;5051666;28;20123;-70
2022/05/21 01:52:10;;;;;;;10.23;5.20;;;11.30;99.90;;;;;;5068477;28;20174;-70
2022/05/21 01:54:36;;;;;;;9.23;4.72;;;11.30;99.90;;;;;;5067654;28;20524;-70
2022/05/21 01:57:02;;;;;;;9.57;5.47;;;11.40;99.90;;;;;;5068149;28;20044;-69
2022/05/21 01:59:28;;;;;;;10.80;5.40;;;11.40;99.90;;;;;;5068418;28;20120;-70
2022/05/21 02:01:54;;;;;;;10.75;4.63;;;11.50;99.90;;;;;;5068330;28;20127;-70
2022/05/21 02:04:20;;;;;;;8.90;5.25;;;11.40;99.90;;;;;;5067928;28;20130;-70
2022/05/21 02:06:47;;;;;;;11.20;5.00;;;11.50;99.90;;;;;;5068007;28;20036;-70
2022/05/21 02:09:13;;;;;;;9.30;5.38;;;11.50;99.90;;;;;;5067680;28;20394;-70
2022/05/21 02:11:39;;;;;;;10.55;5.05;;;11.50;99.90;;;;;;5067462;28;20052;-70
2022/05/21 02:14:05;;;;;;;8.45;4.97;;;11.50;99.90;;;;;;5068482;28;20148;-70
2022/05/21 02:16:33;;;;;;;8.77;5.18;;;11.50;99.90;;;;;;5049919;28;20051;-70
2022/05/21 02:19:01;;;;;;;11.93;6.88;;;11.50;99.90;;;;;;5047895;28;20036;-70
2022/05/21 02:21:28;;;;;;;8.02;4.32;;;11.60;99.90;;;;;;5064202;28;20120;-70
2022/05/21 02:23:53;;;;;;;9.27;4.32;;;11.60;99.90;;;;;;5047456;28;20489;-70
2022/05/21 02:26:19;;;;;;;9.30;5.15;;;11.60;99.90;;;;;;5066324;28;20033;-70
2022/05/21 02:28:44;;;;;;;11.18;6.20;;;11.50;99.90;;;;;;5050945;28;20042;-69
2022/05/21 02:31:10;;;;;;;19.27;6.43;;;11.60;99.90;;;;;;5028134;28;1131401;-70
2022/05/21 02:33:36;;;;;;;8.38;4.97;;;11.60;99.90;;;;;;5072161;28;20036;-70
2022/05/21 02:36:01;;;;;;;14.55;4.20;;;11.70;99.90;;;;;;5072035;28;20542;-70
2022/05/21 02:41:13;;;;;;;20.58;6.22;;;11.60;99.90;;;;;;5070718;28;20102;-70
2022/05/21 02:43:40;;;;;;;8.30;4.88;;;11.70;99.90;;;;;;5071757;28;20460;-70
2022/05/21 02:46:06;;;;;;;9.40;5.30;;;11.70;99.90;;;;;;5071151;28;20098;-70
2022/05/21 02:48:31;;;;;;;8.90;4.50;;;11.70;99.90;;;;;;5071475;28;20040;-70
2022/05/21 02:50:57;;;;;;;14.73;5.70;;;11.70;99.90;;;;;;5054917;28;20128;-70
2022/05/21 02:53:23;;;;;;;8.90;5.55;;;11.80;99.90;;;;;;5054688;28;20448;-70
2022/05/21 02:55:51;;;;;;;9.50;4.72;;;11.70;99.90;;;;;;5070860;28;20036;-70
2022/05/21 02:58:17;;;;;;;8.82;5.47;;;11.80;99.90;;;;;;5071303;28;20043;-70
2022/05/21 03:00:44;;;;;;;12.85;6.45;;;11.80;99.90;;;;;;5071308;28;20538;-70
2022/05/21 03:03:10;;;;;;;9.48;4.85;;;11.90;99.90;;;;;;5071658;28;20075;-70
2022/05/21 03:05:36;;;;;;;10.60;5.57;;;11.80;99.90;;;;;;5070991;28;20461;-70
2022/05/21 03:10:20;;;;;;;8.25;4.68;;;11.90;99.90;;;;;;5055127;28;20138;-70
2022/05/21 03:10:56;;;;;;;12.30;5.40;;;11.80;99.90;;;;;;5070456;28;20083;-70
2022/05/21 03:13:22;;;;;;;11.57;4.80;;;11.90;99.90;;;;;;5071313;28;20040;-70
2022/05/21 03:15:48;;;;;;;10.75;5.90;;;11.90;99.90;;;;;;5071279;28;20043;-70
2022/05/21 03:18:15;;;;;;;7.18;4.60;;;11.90;99.90;;;;;;5071178;28;20047;-70
2022/05/21 03:20:41;;;;;;;8.60;4.38;;;11.80;99.90;;;;;;5071218;28;20052;-70
2022/05/21 03:23:07;;;;;;;16.00;5.57;;;11.90;99.90;;;;;;5071358;28;20130;-70
2022/05/21 03:25:33;;;;;;;8.80;4.95;;;11.90;99.90;;;;;;5070281;28;20078;-70
2022/05/21 03:27:59;;;;;;;9.80;4.90;;;11.90;99.90;;;;;;5054392;28;20075;-70
2022/05/21 03:30:27;;;;;;;10.05;5.45;;;11.90;99.90;;;;;;5071301;28;20102;-70
2022/05/21 03:32:54;;;;;;;11.45;4.70;;;12.00;99.90;;;;;;5070543;28;20497;-70
2022/05/21 03:35:20;;;;;;;9.82;5.22;;;11.90;99.90;;;;;;5054225;28;20083;-70
2022/05/21 03:37:47;;;;;;;9.30;3.97;;;12.00;99.90;;;;;;5088778;28;20051;-70
2022/05/21 03:40:19;;;;;;;6.72;3.70;;;11.90;99.90;;;;;;5069732;28;20078;-70
2022/05/21 03:42:45;;;;;;;8.55;4.15;;;12.00;99.90;;;;;;5053920;28;20036;-70
2022/05/21 03:45:12;;;;;;;7.63;4.10;;;12.00;99.90;;;;;;5088629;28;20124;-70
2022/05/21 03:47:41;;;;;;;15.35;5.15;;;12.00;99.90;;;;;;5070530;28;20039;-70
2022/05/21 03:50:17;;;;;;;7.60;4.32;;;12.00;99.90;;;;;;5070668;28;20032;-70
2022/05/21 03:52:43;;;;;;;5.82;3.10;;;12.10;99.90;;;;;;5070633;28;20028;-70
2022/05/21 03:55:09;;;;;;;8.38;3.05;;;12.00;99.90;;;;;;5069647;28;20499;-70
2022/05/21 03:57:35;;;;;;;5.85;3.38;;;12.00;99.90;;;;;;5070266;28;20470;-70
2022/05/21 04:00:01;;;;;;;5.05;2.90;;;12.10;99.90;;;;;;5070639;28;20114;-70
2022/05/21 04:02:26;;;;;;;6.00;3.28;;;12.10;99.90;;;;;;5088678;28;20124;-70
2022/05/21 04:04:53;;;;;;;8.63;3.60;;;12.10;99.90;;;;;;5070119;28;20040;-70
2022/05/21 04:07:19;;;;;;;9.02;3.25;;;12.20;99.90;;;;;;5053973;28;20097;-70
2022/05/21 04:09:45;;;;;;;12.50;3.45;;;12.10;99.90;;;;;;5069786;28;20036;-70
2022/05/21 04:12:10;;;;;;;4.40;2.85;;;12.20;99.90;;;;;;5070552;28;20500;-70
2022/05/21 04:14:36;;;;;;;6.40;2.65;;;12.20;99.90;;;;;;5086303;28;20359;-70
2022/05/21 04:17:04;;;;;;;7.88;2.75;;;12.20;99.90;;;;;;5050793;28;20079;-70
2022/05/21 04:19:30;;;;;;;9.57;2.83;;;12.20;99.90;;;;;;5033733;28;20510;-70
2022/05/21 04:21:56;;;;;;;4.07;2.45;;;12.30;99.90;;;;;;5084123;28;20050;-70
2022/05/21 04:24:22;;;;;;;6.05;2.20;;;12.20;99.90;;;;;;5049951;28;20094;-70
2022/05/21 04:26:48;;;;;;;6.32;2.63;;;12.30;99.90;;;;;;5057132;28;20047;-70
2022/05/21 04:29:15;;;;;;;3.90;1.98;;;12.20;99.90;;;;;;5070130;28;20409;-70
2022/05/21 04:31:41;;;;;;;5.10;2.47;;;12.30;99.90;;;;;;5070399;28;20044;-70
2022/05/21 04:34:06;;;;;;;4.03;2.17;;;12.30;99.90;;;;;;5070387;28;20554;-70
2022/05/21 04:36:33;;;;;;;4.88;1.80;;;12.30;99.90;;;;;;5070434;28;20343;-70
2022/05/21 04:38:58;;;;;;;6.15;1.33;;;12.30;99.90;;;;;;5070097;28;20040;-70
2022/05/21 04:41:25;;;;;;;2.90;1.45;;;12.40;99.90;;;;;;5068909;28;20229;-70
2022/05/21 04:43:52;;;;;;;5.43;1.30;;;12.30;99.90;;;;;;5053292;28;20561;-70
2022/05/21 04:46:19;;;;;;;4.90;1.20;;;12.30;99.90;;;;;;5070280;28;20036;-70
2022/05/21 04:48:46;;;;;;;6.72;1.88;;;12.30;99.90;;;;;;5069610;28;20127;-70
2022/05/21 04:51:12;;;;;;;3.65;1.40;;;12.40;99.90;;;;;;5069789;28;20039;-70
2022/05/21 04:53:38;;;;;;;4.13;1.30;;;12.40;99.90;;;;;;5069757;28;20042;-70
2022/05/21 04:56:05;;;;;;;4.20;1.33;;;12.40;99.90;;;;;;5069275;28;20036;-70
2022/05/21 04:58:31;;;;;;;6.00;1.83;;;12.40;99.90;;;;;;5070155;28;20047;-70
2022/05/21 05:00:57;;;;;;;2.67;1.10;;;12.40;99.90;;;;;;5069788;28;20048;-70
2022/05/21 05:03:23;;;;;;;1.88;1.02;;;12.40;99.90;;;;;;5070123;28;20047;-70
2022/05/21 05:05:49;;;;;;;6.13;1.23;;;12.40;99.90;;;;;;5069418;28;20055;-70
2022/05/21 05:08:18;;;;;;;2.05;0.82;;;12.40;99.90;;;;;;5071739;28;20442;-70
2022/05/21 05:10:44;;;;;;;3.92;0.90;;;12.40;99.90;;;;;;5071989;28;20040;-70
2022/05/21 05:13:12;;;;;;;2.22;1.15;;;12.40;99.90;;;;;;5073519;28;20088;-69
2022/05/21 05:15:37;;;;;;;2.30;1.10;;;12.50;99.90;;;;;;5073265;28;20068;-70
2022/05/21 05:18:09;;;;;;;1.58;0.90;;;12.50;99.90;;;;;;5073562;28;20500;-69
2022/05/21 05:20:35;;;;;;;2.00;0.98;;;12.50;99.90;;;;;;5073126;28;20105;-69
2022/05/21 05:23:02;;;;;;;2.00;0.98;;;12.60;99.90;;;;;;5073873;28;20400;-70
2022/05/21 05:25:28;;;;;;;2.25;0.80;;;12.50;99.90;;;;;;5055933;28;20442;-70
2022/05/21 05:27:54;;;;;;;3.05;0.95;;;12.60;99.90;;;;;;5057020;28;20044;-69
2022/05/21 05:30:21;;;;;;;4.80;2.40;;;12.50;99.90;;;;;;5073609;28;20138;-70
2022/05/21 05:32:47;;;;;;;3.63;1.05;;;12.60;99.90;;;;;;5073098;28;20059;-70
2022/05/21 05:35:13;;;;;;;1.48;0.80;;;12.50;99.90;;;;;;5073317;28;20036;-70
2022/05/21 05:37:40;;;;;;;2.30;0.98;;;12.60;99.90;;;;;;5072677;28;20500;-70
2022/05/21 05:40:08;;;;;;;4.57;0.98;;;12.60;99.90;;;;;;5072064;28;20475;-70
2022/05/21 05:42:35;;;;;;;2.65;0.93;;;12.70;99.90;;;;;;5073164;28;20047;-70
2022/05/21 05:45:01;;;;;;;1.77;0.90;;;12.70;99.90;;;;;;5073335;28;20054;-70
2022/05/21 05:47:27;;;;;;;2.35;1.27;;;12.80;99.90;;;;;;5073206;28;20127;-70
2022/05/21 05:49:53;;;;;;;1.60;0.73;;;12.70;99.90;;;;;;5072629;28;20036;-70
2022/05/21 05:52:19;;;;;;;4.53;1.08;;;12.70;99.90;;;;;;5072524;28;20093;-70
2022/05/21 05:54:46;;;;;;;3.15;0.88;;;12.70;99.90;;;;;;5071919;28;20044;-70
2022/05/21 05:57:11;;;;;;;1.73;0.65;;;12.70;99.90;;;;;;5072612;28;20040;-70
2022/05/21 05:59:50;;;;;;;2.13;0.80;;;12.70;99.90;;;;;;5072281;28;20046;-70
2022/05/21 06:05:13;;;;;;;3.53;0.85;;;12.80;99.90;;;;;;5072337;28;20048;-70
2022/05/21 06:07:42;;;;;;;5.88;1.38;;;12.80;99.90;;;;;;5072418;28;20047;-70
2022/05/21 06:10:08;;;;;;;5.28;1.17;;;12.80;99.90;;;;;;5071340;28;20493;-70
2022/05/21 06:12:34;;;;;;;2.15;0.88;;;12.80;99.90;;;;;;5072379;28;20034;-70
2022/05/21 06:15:00;;;;;;;7.03;1.27;;;12.80;99.90;;;;;;5085424;28;20029;-70
2022/05/21 06:17:26;;;;;;;1.20;0.63;;;12.80;99.90;;;;;;5052267;28;20040;-70
2022/05/21 06:19:53;;;;;;;1.75;0.90;;;12.80;99.90;;;;;;5067303;28;20222;-70
2022/05/21 06:22:18;;;;;;;1.50;0.90;;;12.90;99.90;;;;;;5052639;28;20425;-70
2022/05/21 06:24:44;;;;;;;1.60;0.68;;;13.10;99.90;;;;;;5084920;28;20040;-70
2022/05/21 06:27:10;;;;;;;1.80;0.85;;;13.30;99.90;;;;;;5072412;28;20042;-70
2022/05/21 06:29:38;;;;;;;4.72;1.13;;;13.40;99.90;;;;;;5072152;28;20456;-70
2022/05/21 06:32:05;;;;;;;4.07;1.08;;;13.40;99.90;;;;;;5072064;28;20048;-70
2022/05/21 06:34:31;;;;;;;3.42;1.50;;;13.40;99.90;;;;;;5072238;28;20597;-70
2022/05/21 06:37:05;;;;;;;3.50;0.75;;;13.30;99.90;;;;;;5055823;28;20089;-70
2022/05/21 06:39:36;;;;;;;4.88;1.13;;;13.30;99.90;;;;;;5071374;28;20044;-70
2022/05/21 06:42:02;;;;;;;1.60;0.95;;;13.30;99.90;;;;;;5055734;28;20050;-70
2022/05/21 06:44:28;;;;;;;4.68;0.88;;;13.30;99.90;;;;;;5071961;28;20715;-70
2022/05/21 06:46:55;;;;;;;5.53;1.30;;;13.40;99.90;;;;;;5071837;28;20032;-70
2022/05/21 06:49:21;;;;;;;5.85;1.10;;;13.80;99.90;;;;;;5071673;28;20032;-70
2022/05/21 06:51:47;;;;;;;3.92;1.38;;;13.90;99.90;;;;;;5055445;28;20036;-70
2022/05/21 06:54:13;;;;;;;2.35;1.02;;;14.20;99.90;;;;;;5089468;28;20047;-70
2022/05/21 06:56:40;;;;;;;3.55;0.68;;;14.50;99.90;;;;;;5071200;28;20035;-70
2022/05/21 06:59:06;;;;;;;1.17;0.77;;;14.40;99.90;;;;;;5071292;28;20044;-70
2022/05/21 07:01:32;;;;;;;2.95;0.98;;;14.40;99.90;;;;;;5071722;28;20040;-70
2022/05/21 07:03:57;;;;;;;4.05;1.27;;;14.20;99.90;;;;;;5071210;28;20051;-70
2022/05/21 07:09:07;;;;;;;4.28;1.15;;;13.90;99.90;;;;;;5070765;28;20048;-70
2022/05/21 07:11:33;;;;;;;1.27;0.95;;;13.80;99.90;;;;;;5070616;28;20040;-69
2022/05/21 07:13:59;;;;;;;3.20;0.90;;;13.80;99.90;;;;;;5070896;28;20541;-70
2022/05/21 07:16:25;;;;;;;0.60;0.45;;;13.80;99.90;;;;;;5071223;28;20059;-69
2022/05/21 07:18:50;;;;;;;2.20;0.90;;;13.80;99.90;;;;;;5071259;28;20032;-69
2022/05/21 07:21:18;;;;;;;1.42;0.70;;;13.80;99.90;;;;;;5054319;28;20048;-70
2022/05/21 07:23:44;;;;;;;2.28;0.90;;;13.90;99.90;;;;;;5070801;28;20401;-69
2022/05/21 07:26:11;;;;;;;5.53;0.80;;;13.90;99.90;;;;;;5069761;28;20051;-69
2022/05/21 07:28:36;;;;;;;4.00;0.50;;;13.90;99.90;;;;;;5070723;28;20500;-70
2022/05/21 07:31:03;;;;;;;2.58;0.98;;;13.90;99.90;;;;;;5070640;28;20043;-69
2022/05/21 07:33:28;;;;;;;1.17;0.80;;;14.00;99.90;;;;;;5070644;28;20508;-69
2022/05/21 07:35:54;;;;;;;1.48;0.95;;;14.10;99.90;;;;;;5070477;28;20145;-69
2022/05/21 07:38:19;;;;;;;1.90;0.68;;;14.20;99.90;;;;;;5071135;28;20040;-69
2022/05/21 07:40:46;;;;;;;1.05;0.50;;;14.30;99.90;;;;;;5069528;28;20121;-69
2022/05/21 07:43:16;;;;;;;4.38;0.98;;;14.30;99.90;;;;;;5071024;28;20040;-69
2022/05/21 07:45:43;;;;;;;2.92;0.82;;;14.30;99.90;;;;;;5054031;28;20047;-69
2022/05/21 07:48:11;;;;;;;9.52;0.95;;;14.20;99.90;;;;;;5054363;28;20040;-69
2022/05/21 07:50:40;;;;;;;1.95;0.90;;;14.20;99.90;;;;;;5070564;28;20114;-70
2022/05/21 07:53:14;;;;;;;2.50;0.77;;;14.10;99.90;;;;;;5070436;28;20117;-70
2022/05/21 07:55:45;;;;;;;0.95;0.63;;;14.00;99.90;;;;;;5053157;28;20040;-69
2022/05/21 07:58:11;;;;;;;1.40;0.68;;;14.00;99.90;;;;;;5071017;28;20055;-69
2022/05/21 08:00:37;;;;;;;6.78;1.02;;;14.10;99.90;;;;;;5070473;28;20426;-70
2022/05/21 08:03:02;;;;;;;1.73;0.90;;;14.20;99.90;;;;;;5070681;28;20055;-70
2022/05/21 08:05:29;;;;;;;2.38;0.60;;;14.30;99.90;;;;;;5070764;28;20036;-69
2022/05/21 08:07:54;;;;;;;4.75;0.75;;;14.40;99.90;;;;;;5070617;28;20357;-70
2022/05/21 08:10:22;;;;;;;3.78;0.73;;;14.60;99.90;;;;;;5069503;28;20765;-70
2022/05/21 08:12:49;;;;;;;2.30;0.80;;;14.60;99.90;;;;;;5070348;28;20040;-70
2022/05/21 08:15:15;;;;;;;2.22;0.68;;;14.60;99.90;;;;;;5063060;28;20055;-69
2022/05/21 08:17:41;;;;;;;2.10;0.70;;;14.70;99.90;;;;;;5068405;28;20436;-70
2022/05/21 08:20:10;;;;;;;6.10;0.80;;;14.60;99.90;;;;;;5083842;28;20045;-70
2022/05/21 08:28:04;;;;;;;1.00;0.50;;;14.80;99.90;;;;;;5067591;28;20184;-69
2022/05/21 08:30:30;;;;;;;4.78;1.00;;;14.90;99.90;;;;;;5070475;28;20126;-69
2022/05/21 08:33:06;;;;;;;4.50;1.08;;;15.00;99.90;;;;;;5069650;28;20052;-69
2022/05/21 08:35:32;;;;;;;1.50;0.85;;;15.00;99.90;;;;;;5070037;28;20509;-69
2022/05/21 08:37:58;;;;;;;1.05;0.60;;;15.10;99.90;;;;;;5070010;28;20043;-70
2022/05/21 08:40:35;;;;;;;2.13;0.70;;;15.10;99.90;;;;;;5052296;28;20044;-70
2022/05/21 08:43:04;;;;;;;2.53;0.50;;;15.00;99.90;;;;;;5054676;28;20093;-69
2022/05/21 08:46:07;;;;;;;1.83;0.75;;;14.90;99.90;;;;;;5074199;28;20481;-69
2022/05/21 08:48:35;;;;;;;2.50;0.73;;;14.90;99.90;;;;;;5069742;28;20048;-70
2022/05/21 08:51:12;;;;;;;0.98;0.60;;;15.00;99.90;;;;;;5073726;28;20040;-70
2022/05/21 08:53:46;;;;;;;2.42;1.08;;;15.10;99.90;;;;;;5073327;28;20062;-69
2022/05/21 08:56:12;;;;;;;7.50;1.10;;;15.10;99.90;;;;;;5091166;28;20101;-70
2022/05/21 08:58:50;;;;;;;3.30;0.82;;;15.30;99.90;;;;;;5073633;28;20477;-70
2022/05/21 09:01:20;;;;;;;0.88;0.50;;;15.40;99.90;;;;;;5074020;28;20118;-69
2022/05/21 09:03:47;;;;;;;1.48;0.60;;;15.40;99.90;;;;;;5073745;28;20043;-70
2022/05/21 09:06:18;;;;;;;4.47;0.60;;;15.40;99.90;;;;;;5073141;28;20051;-70
2022/05/21 09:09:11;;;;;;;0.95;0.70;;;15.30;99.90;;;;;;5073789;28;20040;-70
2022/05/21 09:11:48;;;;;;;3.08;1.02;;;15.20;99.90;;;;;;5073208;28;20355;-70
2022/05/21 09:14:36;;;;;;;1.33;0.73;;;15.10;99.90;;;;;;5091761;28;20089;-70
2022/05/21 09:17:02;;;;;;;1.42;0.60;;;15.10;99.90;;;;;;5073891;28;20040;-70
2022/05/21 09:19:38;;;;;;;3.75;0.70;;;15.20;99.90;;;;;;5073457;28;20501;-70
2022/05/21 09:22:09;;;;;;;2.17;0.73;;;15.30;99.90;;;;;;5073705;28;20097;-70
2022/05/21 09:24:43;;;;;;;1.50;0.50;;;15.40;99.90;;;;;;5072926;28;20050;-70
2022/05/21 09:27:33;;;;;;;2.22;0.82;;;15.40;99.90;;;;;;5056946;28;20101;-70
2022/05/21 09:30:25;;;;;;;2.38;0.70;;;15.60;99.90;;;;;;5073149;28;20051;-70
2022/05/21 09:32:54;;;;;;;4.10;0.70;;;15.70;99.90;;;;;;5072922;28;20052;-69
2022/05/21 09:35:26;;;;;;;4.22;1.05;;;15.80;99.90;;;;;;5072926;28;20048;-69
2022/05/21 09:37:53;;;;;;;2.05;0.60;;;15.70;99.90;;;;;;5056528;28;20079;-70
2022/05/21 09:40:45;;;;;;;2.63;0.47;;;15.60;99.90;;;;;;5055611;28;20036;-70
2022/05/21 09:46:36;;;;;;;3.33;0.70;;;15.40;99.90;;;;;;5073209;28;20040;-70
2022/05/21 09:49:22;;;;;;;0.98;0.60;;;15.30;99.90;;;;;;5090620;28;20048;-69
2022/05/21 09:52:04;;;;;;;2.70;0.52;;;15.20;99.90;;;;;;5056494;28;20044;-69
2022/05/21 09:54:40;;;;;;;1.45;0.47;;;15.20;99.90;;;;;;5071922;28;20052;-70
2022/05/21 09:57:19;;;;;;;0.85;0.40;;;15.20;99.90;;;;;;5073053;28;20043;-69
2022/05/21 10:00:14;;;;;;;1.58;0.47;;;15.20;99.90;;;;;;5072872;28;20493;-69
2022/05/21 10:02:54;;;;;;;1.45;0.30;;;15.20;99.90;;;;;;5056292;28;20126;-70
2022/05/21 10:05:29;;;;;;;0.65;0.40;;;15.10;99.90;;;;;;5072206;28;20274;-70
2022/05/21 10:10:59;;;;;;;2.28;0.70;;;15.20;99.90;;;;;;5071276;28;20048;-70
2022/05/21 10:13:47;;;;;;;3.42;0.70;;;15.20;99.90;;;;;;5072548;28;20287;-69
2022/05/21 10:16:46;;;;;;;3.30;0.60;;;15.30;99.90;;;;;;5059772;28;20497;-69
2022/05/21 10:19:21;;;;;;;0.63;0.40;;;15.30;99.90;;;;;;5049913;28;20056;-69
2022/05/21 10:21:57;;;;;;;0.93;0.57;;;15.30;99.90;;;;;;5072238;28;20131;-69
2022/05/21 10:24:42;;;;;;;2.40;0.50;;;15.30;99.90;;;;;;5071067;28;20082;-69
2022/05/21 10:27:24;;;;;;;2.92;0.55;;;15.30;99.90;;;;;;5071901;28;20505;-69
2022/05/21 10:30:25;;;;;;;6.50;1.08;;;15.40;99.90;;;;;;5072481;28;20555;-69
2022/05/21 10:33:24;;;;;;;0.73;0.40;;;15.50;99.90;;;;;;5060999;28;20052;-69
2022/05/21 10:36:15;;;;;;;5.40;0.60;;;15.60;99.90;;;;;;5071464;28;20572;-69
2022/05/21 10:39:34;;;;;;;0.47;0.38;;;15.70;99.90;;;;;;5055403;28;20046;-69
2022/05/21 10:42:13;;;;;;;1.13;0.40;;;15.80;99.90;;;;;;4990777;28;20037;-69
2022/05/21 10:44:53;;;;;;;1.52;0.30;;;15.80;99.90;;;;;;4975146;28;20050;-69
2022/05/21 10:47:43;;;;;;;1.80;0.43;;;16.00;99.90;;;;;;5043618;28;20054;-69
2022/05/21 10:50:43;;;;;;;0.38;0.30;;;16.00;99.90;;;;;;5071329;28;20044;-69
2022/05/21 10:53:30;;;;;;;1.73;0.65;;;16.00;99.90;;;;;;5071671;28;20044;-69
2022/05/21 10:56:09;;;;;;;6.93;0.70;;;16.00;99.90;;;;;;5070916;28;20055;-69
2022/05/21 10:59:09;;;;;;;1.73;0.57;;;15.90;99.90;;;;;;5071588;28;20075;-69
2022/05/21 11:02:06;;;;;;;1.30;0.40;;;15.80;99.90;;;;;;5034201;28;20059;-69
2022/05/21 11:04:52;;;;;;;1.27;0.45;;;15.90;99.90;;;;;;5071522;28;20051;-69
2022/05/21 11:07:40;;;;;;;0.63;0.28;;;15.90;99.90;;;;;;5054811;28;20047;-70
2022/05/21 11:10:25;;;;;;;3.15;0.55;;;15.90;99.90;;;;;;5070310;28;20582;-69
2022/05/21 11:13:18;;;;;;;1.50;0.77;;;15.90;99.90;;;;;;5054867;28;20039;-69
2022/05/21 11:15:56;;;;;;;1.88;0.65;;;15.90;99.90;;;;;;5054527;28;20055;-70
2022/05/21 11:18:28;;;;;;;1.88;0.50;;;15.90;99.90;;;;;;5071798;28;20048;-69
2022/05/21 11:21:03;;;;;;;3.03;0.75;;;15.90;99.90;;;;;;5054397;28;20044;-69
2022/05/21 11:23:54;;;;;;;0.88;0.47;;;16.00;99.90;;;;;;5089379;28;20067;-70
2022/05/21 11:26:44;;;;;;;3.40;0.60;;;16.00;99.90;;;;;;5070302;28;20040;-69
2022/05/21 11:29:31;;;;;;;1.05;0.30;;;16.00;99.90;;;;;;5054381;28;20036;-69
2022/05/21 11:37:49;;;;;;;1.17;0.50;;;15.90;99.90;;;;;;5070592;28;19919;-69
2022/05/21 11:40:51;;;;;;;2.08;0.80;;;15.90;99.90;;;;;;5069760;28;20138;-69
2022/05/21 11:43:19;;;;;;;3.15;0.70;;;15.90;99.90;;;;;;5070836;28;20044;-69
2022/05/21 11:46:10;;;;;;;3.55;0.60;;;15.90;99.90;;;;;;5070675;28;20071;-69
2022/05/21 11:48:35;;;;;;;1.05;0.40;;;15.90;99.90;;;;;;5070434;28;20489;-69
2022/05/21 11:51:20;;;;;;;2.60;0.50;;;15.90;99.90;;;;;;5070709;28;20036;-69
2022/05/21 11:53:46;;;;;;;2.55;0.55;;;16.10;99.90;;;;;;5070740;28;20075;-70
2022/05/21 11:56:13;;;;;;;1.58;0.57;;;16.20;99.90;;;;;;5069783;28;20493;-70
2022/05/21 11:58:57;;;;;;;1.17;0.50;;;16.30;99.90;;;;;;5070748;28;20051;-70
2022/05/21 12:01:38;;;;;;;4.22;0.63;;;16.50;99.90;;;;;;5070767;28;20043;-70
2022/05/21 12:04:06;;;;;;;3.33;0.50;;;16.40;99.90;;;;;;5053778;28;20069;-70
2022/05/21 12:06:40;;;;;;;5.72;0.93;;;16.40;99.90;;;;;;5070567;28;20115;-70
2022/05/21 12:09:27;;;;;;;1.73;0.50;;;16.40;99.90;;;;;;5070359;28;20417;-70
2022/05/21 12:12:22;;;;;;;0.68;0.32;;;16.40;99.90;;;;;;5070552;28;20124;-70
2022/05/21 12:14:57;;;;;;;1.77;0.50;;;16.30;99.90;;;;;;5066434;28;20047;-69
2022/05/21 12:17:42;;;;;;;0.75;0.38;;;16.20;99.90;;;;;;5086256;28;20047;-70
2022/05/21 12:20:11;;;;;;;1.85;0.47;;;16.20;99.90;;;;;;5054424;28;20048;-70
2022/05/21 12:22:44;;;;;;;1.13;0.60;;;16.30;99.90;;;;;;5054743;28;20375;-70
2022/05/21 12:25:42;;;;;;;11.25;0.95;;;16.30;99.90;;;;;;5071693;28;20048;-69
2022/05/21 12:28:11;;;;;;;1.30;0.43;;;16.20;99.90;;;;;;5055508;28;20542;-70
2022/05/21 12:30:37;;;;;;;0.60;0.35;;;16.10;99.90;;;;;;5074582;28;20039;-70
2022/05/21 12:33:06;;;;;;;2.90;0.38;;;16.20;99.90;;;;;;5074305;28;20048;-69
2022/05/21 12:35:47;;;;;;;2.83;0.60;;;16.20;99.90;;;;;;5074320;28;20300;-70
2022/05/21 12:38:35;;;;;;;1.45;0.40;;;16.20;99.90;;;;;;5074542;28;20039;-70
2022/05/21 12:41:17;;;;;;;2.70;0.98;;;16.20;99.90;;;;;;5073351;28;20102;-70
2022/05/21 12:43:47;;;;;;;2.45;0.30;;;16.20;99.90;;;;;;5074756;28;20039;-69
2022/05/21 12:46:35;;;;;;;1.23;0.60;;;16.20;99.90;;;;;;5073893;28;20037;-70
2022/05/21 12:49:11;;;;;;;1.45;0.52;;;16.20;99.90;;;;;;5073817;28;20036;-69
2022/05/21 12:51:42;;;;;;;2.58;0.60;;;16.20;99.90;;;;;;5073931;28;20081;-70
2022/05/21 12:54:37;;;;;;;2.83;0.63;;;16.10;99.90;;;;;;5073454;28;20036;-70
2022/05/21 12:57:13;;;;;;;2.28;0.60;;;16.10;99.90;;;;;;5056910;28;20429;-70
2022/05/21 12:59:39;;;;;;;2.60;0.55;;;16.00;99.90;;;;;;5073596;28;20051;-69
2022/05/21 13:02:20;;;;;;;0.85;0.35;;;16.00;99.90;;;;;;5057054;28;20415;-70
2022/05/21 13:04:48;;;;;;;4.13;0.40;;;15.90;99.90;;;;;;5073253;28;20090;-70
2022/05/21 13:07:16;;;;;;;2.40;0.40;;;15.90;99.90;;;;;;5073569;28;20040;-70
2022/05/21 13:10:15;;;;;;;0.20;0.20;;;15.80;99.90;;;;;;5056033;28;20039;-70
2022/05/21 13:12:49;;;;;;;1.38;0.40;;;15.90;99.90;;;;;;5073552;28;20043;-70
2022/05/21 13:15:25;;;;;;;1.67;0.30;;;15.90;99.90;;;;;;5056733;28;20122;-70
2022/05/21 13:18:05;;;;;;;2.25;0.40;;;16.10;99.90;;;;;;5073644;28;20055;-70
2022/05/21 13:21:06;;;;;;;2.15;0.68;;;16.20;99.90;;;;;;5056822;28;20126;-70
2022/05/21 13:23:42;;;;;;;1.95;0.30;;;16.20;99.90;;;;;;4992890;28;20053;-70
2022/05/21 13:26:19;;;;;;;0.98;0.60;;;16.20;99.90;;;;;;5061483;28;20055;-70
2022/05/21 13:28:45;;;;;;;0.98;0.30;;;16.20;99.90;;;;;;5072825;28;20043;-69
2022/05/21 13:31:19;;;;;;;0.85;0.40;;;16.20;99.90;;;;;;5073139;28;20452;-70
2022/05/21 13:33:53;;;;;;;1.30;0.32;;;16.20;99.90;;;;;;5073402;28;20039;-70